createdAt,value
2022-10-19T00:01:33.088Z,27.90
2022-10-19T00:04:04.830Z,18.77
2022-10-19T00:06:38.768Z,19.65
2022-10-19T00:09:09.957Z,25.95
2022-10-19T00:11:41.614Z,25.20
2022-10-19T00:14:14.122Z,21.55
2022-10-19T00:16:44.094Z,25.95
2022-10-19T00:19:16.733Z,20.98
2022-10-19T00:21:47.048Z,9.68
2022-10-19T00:24:15.919Z,22.27
2022-10-19T00:26:44.955Z,17.08
2022-10-19T00:29:14.872Z,24.63
2022-10-19T00:31:44.241Z,21.52
2022-10-19T00:34:13.134Z,20.40
2022-10-19T00:36:42.414Z,21.70
2022-10-19T00:39:15.520Z,21.13
2022-10-19T00:41:45.327Z,16.70
2022-10-19T00:44:51.337Z,20.65
2022-10-19T00:47:24.386Z,15.30
2022-10-19T00:49:54.181Z,17.63
2022-10-19T00:52:26.040Z,17.25
2022-10-19T00:54:57.587Z,12.82
2022-10-19T00:57:30.737Z,12.25
2022-10-19T01:00:01.639Z,13.82
2022-10-19T01:02:30.705Z,17.23
2022-10-19T01:05:00.566Z,14.95
2022-10-19T01:07:29.760Z,18.58
2022-10-19T01:10:02.064Z,26.42
2022-10-19T01:13:00.018Z,25.55
2022-10-19T01:15:39.049Z,22.92
2022-10-19T01:18:17.187Z,18.20
2022-10-19T01:21:21.744Z,15.63
2022-10-19T01:24:27.865Z,22.88
2022-10-19T01:27:43.025Z,17.00
2022-10-19T01:30:23.619Z,17.08
2022-10-19T01:33:15.936Z,15.55
2022-10-19T01:35:52.283Z,19.25
2022-10-19T01:38:31.856Z,14.52
2022-10-19T01:41:10.395Z,22.10
2022-10-19T01:43:44.759Z,21.95
2022-10-19T01:46:20.846Z,32.60
2022-10-19T01:48:56.175Z,27.85
2022-10-19T01:51:30.336Z,27.92
2022-10-19T01:54:03.879Z,23.80
2022-10-19T01:56:34.614Z,14.15
2022-10-19T01:59:08.542Z,17.25
2022-10-19T02:01:42.711Z,17.52
2022-10-19T02:04:14.236Z,13.83
2022-10-19T02:06:43.362Z,14.23
2022-10-19T02:09:18.020Z,17.27
2022-10-19T02:11:53.365Z,11.57
2022-10-19T02:14:30.395Z,16.30
2022-10-19T02:17:04.163Z,13.67
2022-10-19T02:19:33.015Z,14.10
2022-10-19T02:22:02.040Z,9.00
2022-10-19T02:24:30.813Z,10.55
2022-10-19T02:27:01.795Z,17.90
2022-10-19T02:29:30.636Z,11.20
2022-10-19T02:32:00.997Z,14.32
2022-10-19T02:34:30.592Z,11.43
2022-10-19T02:37:00.042Z,11.52
2022-10-19T02:39:29.847Z,12.73
2022-10-19T02:42:05.391Z,16.13
2022-10-19T02:44:40.479Z,17.60
2022-10-19T02:49:43.605Z,13.95
2022-10-19T02:52:13.945Z,14.27
2022-10-19T02:54:45.169Z,12.20
2022-10-19T02:57:18.303Z,11.35
2022-10-19T02:59:47.232Z,17.30
2022-10-19T03:02:18.968Z,11.05
2022-10-19T03:04:48.569Z,15.68
2022-10-19T03:07:19.277Z,11.75
2022-10-19T03:09:48.054Z,14.32
2022-10-19T03:12:17.134Z,15.52
2022-10-19T03:14:46.039Z,16.25
2022-10-19T03:17:14.914Z,16.02
2022-10-19T03:19:45.217Z,10.65
2022-10-19T03:22:14.487Z,14.18
2022-10-19T03:24:43.423Z,14.07
2022-10-19T03:27:12.212Z,13.75
2022-10-19T03:29:41.051Z,21.20
2022-10-19T03:32:09.885Z,12.00
2022-10-19T03:34:38.855Z,19.90
2022-10-19T03:37:09.170Z,13.10
2022-10-19T03:39:37.984Z,23.38
2022-10-19T03:42:06.847Z,12.02
2022-10-19T03:44:35.737Z,14.10
2022-10-19T03:47:04.583Z,14.20
2022-10-19T03:49:34.682Z,14.90
2022-10-19T03:52:05.973Z,29.63
2022-10-19T03:54:36.196Z,18.13
2022-10-19T03:57:05.104Z,22.08
2022-10-19T03:59:33.928Z,20.23
2022-10-19T04:02:03.289Z,17.67
2022-10-19T04:04:32.185Z,21.05
2022-10-19T04:07:01.956Z,17.80
2022-10-19T04:09:30.836Z,17.70
2022-10-19T04:12:01.029Z,18.80
2022-10-19T04:14:33.083Z,24.45
2022-10-19T04:17:07.922Z,22.73
2022-10-19T04:19:36.753Z,15.63
2022-10-19T04:22:05.551Z,20.27
2022-10-19T04:24:34.364Z,22.45
2022-10-19T04:27:05.305Z,22.83
2022-10-19T04:29:34.119Z,24.90
2022-10-19T04:32:02.953Z,22.48
2022-10-19T04:34:33.318Z,23.50
2022-10-19T04:37:04.142Z,22.90
2022-10-19T04:39:33.440Z,18.42
2022-10-19T04:42:02.263Z,35.63
2022-10-19T04:44:32.484Z,19.20
2022-10-19T04:47:01.990Z,23.67
2022-10-19T04:49:30.828Z,28.30
2022-10-19T04:51:59.797Z,20.75
2022-10-19T04:54:28.583Z,27.40
2022-10-19T04:56:57.453Z,21.95
2022-10-19T04:59:26.309Z,29.60
2022-10-19T05:01:56.569Z,29.08
2022-10-19T05:04:25.366Z,39.67
2022-10-19T05:06:54.212Z,35.50
2022-10-19T05:09:23.078Z,33.72
2022-10-19T05:11:52.045Z,25.02
2022-10-19T05:14:20.861Z,42.33
2022-10-19T05:16:49.752Z,43.25
2022-10-19T05:19:20.197Z,33.75
2022-10-19T05:21:49.031Z,26.05
2022-10-19T05:24:17.876Z,38.33
2022-10-19T05:26:46.651Z,29.65
2022-10-19T05:29:15.798Z,58.88
2022-10-19T05:31:44.793Z,55.63
2022-10-19T05:34:13.632Z,51.13
2022-10-19T05:36:43.999Z,57.30
2022-10-19T05:39:16.141Z,55.30
2022-10-19T05:41:45.630Z,47.25
2022-10-19T05:44:16.941Z,40.88
2022-10-19T05:46:46.179Z,44.17
2022-10-19T05:49:15.907Z,50.15
2022-10-19T05:51:46.428Z,37.33
2022-10-19T05:54:16.067Z,44.88
2022-10-19T05:56:45.353Z,33.88
2022-10-19T05:59:17.298Z,22.08
2022-10-19T06:01:46.890Z,22.92
2022-10-19T06:06:47.255Z,36.25
2022-10-19T06:09:16.132Z,21.02
2022-10-19T06:11:45.229Z,22.75
2022-10-19T06:14:15.992Z,17.80
2022-10-19T06:16:46.262Z,15.45
2022-10-19T06:19:15.338Z,25.17
2022-10-19T06:21:46.800Z,18.35
2022-10-19T06:24:15.977Z,25.75
2022-10-19T06:26:44.801Z,22.55
2022-10-19T06:29:13.639Z,18.27
2022-10-19T06:31:42.432Z,25.02
2022-10-19T06:34:11.287Z,18.92
2022-10-19T06:36:40.209Z,16.55
2022-10-19T06:39:10.391Z,16.25
2022-10-19T06:41:39.226Z,14.25
2022-10-19T06:44:20.801Z,13.80
2022-10-19T06:46:49.707Z,13.30
2022-10-19T06:49:18.576Z,16.42
2022-10-19T06:51:47.477Z,9.90
2022-10-19T06:54:17.734Z,7.70
2022-10-19T06:56:46.630Z,13.55
2022-10-19T06:59:17.675Z,14.50
2022-10-19T07:01:46.627Z,11.82
2022-10-19T07:04:15.510Z,8.32
2022-10-19T07:06:44.358Z,5.95
2022-10-19T07:09:13.169Z,8.20
2022-10-19T07:11:46.179Z,12.48
2022-10-19T07:14:15.752Z,11.55
2022-10-19T07:16:44.593Z,10.45
2022-10-19T07:19:13.813Z,11.32
2022-10-19T07:21:43.930Z,11.90
2022-10-19T07:24:12.776Z,8.70
2022-10-19T07:26:43.584Z,9.55
2022-10-19T07:29:12.387Z,8.00
2022-10-19T07:31:41.563Z,7.13
2022-10-19T07:34:13.354Z,7.65
2022-10-19T07:36:45.472Z,6.30
2022-10-19T07:39:14.942Z,8.10
2022-10-19T07:41:45.560Z,9.82
2022-10-19T07:44:16.856Z,5.68
2022-10-19T07:46:46.260Z,5.32
2022-10-19T07:49:19.070Z,5.32
2022-10-19T07:51:48.099Z,12.35
2022-10-19T07:54:16.877Z,7.15
2022-10-19T07:56:47.137Z,5.13
2022-10-19T07:59:17.341Z,8.80
2022-10-19T08:01:47.652Z,7.20
2022-10-19T08:07:06.956Z,5.20
2022-10-19T08:12:26.029Z,4.95
2022-10-19T08:14:55.193Z,5.03
2022-10-19T08:17:24.165Z,4.53
2022-10-19T08:19:53.069Z,5.63
2022-10-19T08:22:21.894Z,3.58
2022-10-19T08:24:50.752Z,12.07
2022-10-19T08:27:19.659Z,2.10
2022-10-19T08:29:50.036Z,2.33
2022-10-19T08:32:19.244Z,2.75
2022-10-19T08:34:48.085Z,23.10
2022-10-19T08:37:26.433Z,3.05
2022-10-19T08:40:06.977Z,6.30
2022-10-19T08:42:47.930Z,6.15
2022-10-19T08:45:33.785Z,5.05
2022-10-19T08:48:20.384Z,7.88
2022-10-19T08:50:49.886Z,7.03
2022-10-19T08:53:23.370Z,8.27
2022-10-19T08:56:06.617Z,15.20
2022-10-19T08:58:50.743Z,18.25
2022-10-19T09:01:37.553Z,16.70
2022-10-19T09:04:11.321Z,16.83
2022-10-19T09:06:50.802Z,8.60
2022-10-19T09:09:21.643Z,9.43
2022-10-19T09:11:52.260Z,3.20
2022-10-19T09:14:29.154Z,2.08
2022-10-19T09:17:03.671Z,26.40
2022-10-19T09:19:32.672Z,2.42
2022-10-19T09:22:05.467Z,1.67
2022-10-19T09:24:43.024Z,3.97
2022-10-19T09:27:21.255Z,3.00
2022-10-19T09:29:54.886Z,3.50
2022-10-19T09:32:29.701Z,3.33
2022-10-19T09:35:02.393Z,1.83
2022-10-19T09:37:33.143Z,1.15
2022-10-19T09:40:02.321Z,2.45
2022-10-19T09:42:34.692Z,2.65
2022-10-19T09:45:15.919Z,5.00
2022-10-19T09:47:49.445Z,1.10
2022-10-19T09:50:21.297Z,3.53
2022-10-19T09:52:50.956Z,1.92
2022-10-19T09:55:27.557Z,2.72
2022-10-19T09:58:03.313Z,1.77
2022-10-19T10:00:42.373Z,4.32
2022-10-19T10:03:25.651Z,1.45
2022-10-19T10:05:56.610Z,1.30
2022-10-19T10:08:28.555Z,2.25
2022-10-19T10:11:07.022Z,3.40
2022-10-19T10:13:41.113Z,2.00
2022-10-19T10:16:12.431Z,1.60
2022-10-19T10:18:54.966Z,2.03
2022-10-19T10:21:26.239Z,3.00
2022-10-19T10:24:05.585Z,2.00
2022-10-19T10:26:40.932Z,3.15
2022-10-19T10:31:52.278Z,3.28
2022-10-19T10:34:45.353Z,1.90
2022-10-19T10:37:21.871Z,2.35
2022-10-19T10:39:53.678Z,1.70
2022-10-19T10:42:30.498Z,1.25
2022-10-19T10:45:00.788Z,3.20
2022-10-19T10:47:30.618Z,2.75
2022-10-19T10:50:03.951Z,1.05
2022-10-19T10:52:33.267Z,1.83
2022-10-19T10:55:04.564Z,12.60
2022-10-19T10:57:37.936Z,1.63
2022-10-19T11:00:13.593Z,3.10
2022-10-19T11:02:49.214Z,2.10
2022-10-19T11:05:26.611Z,3.20
2022-10-19T11:08:02.402Z,1.33
2022-10-19T11:10:35.030Z,2.40
2022-10-19T11:13:11.811Z,1.95
2022-10-19T11:15:51.707Z,1.75
2022-10-19T11:18:25.477Z,2.00
2022-10-19T11:21:03.176Z,1.20
2022-10-19T11:23:43.184Z,0.88
2022-10-19T11:26:34.776Z,5.10
2022-10-19T11:29:16.669Z,6.35
2022-10-19T11:31:49.280Z,2.95
2022-10-19T11:34:37.079Z,2.38
2022-10-19T11:37:20.362Z,1.88
2022-10-19T11:40:00.727Z,3.58
2022-10-19T11:42:43.484Z,0.55
2022-10-19T11:45:23.912Z,10.32
2022-10-19T11:48:15.457Z,2.15
2022-10-19T11:50:58.616Z,1.60
2022-10-19T11:53:44.366Z,2.17
2022-10-19T11:56:20.880Z,1.27
2022-10-19T11:58:59.413Z,1.08
2022-10-19T12:01:43.887Z,3.85
2022-10-19T12:04:40.980Z,1.20
2022-10-19T12:07:27.343Z,0.55
2022-10-19T12:10:08.491Z,1.95
2022-10-19T12:12:39.909Z,0.95
2022-10-19T12:15:22.656Z,1.10
2022-10-19T12:17:55.216Z,1.02
2022-10-19T12:20:31.273Z,1.75
2022-10-19T12:23:03.302Z,1.55
2022-10-19T12:25:34.565Z,1.08
2022-10-19T12:28:05.084Z,6.07
2022-10-19T12:30:34.190Z,0.57
2022-10-19T12:33:10.640Z,0.60
2022-10-19T12:36:03.316Z,0.50
2022-10-19T12:38:45.975Z,0.95
2022-10-19T12:41:26.620Z,1.40
2022-10-19T12:44:07.147Z,1.20
2022-10-19T12:46:41.253Z,1.73
2022-10-19T12:49:51.588Z,0.68
2022-10-19T12:52:38.251Z,0.38
2022-10-19T12:55:29.809Z,1.45
2022-10-19T12:58:04.000Z,0.63
2022-10-19T13:00:35.074Z,2.00
2022-10-19T13:03:08.234Z,0.75
2022-10-19T13:05:37.735Z,0.75
2022-10-19T13:08:10.844Z,1.13
2022-10-19T13:10:42.648Z,28.13
2022-10-19T13:13:44.873Z,1.45
2022-10-19T13:16:58.910Z,0.75
2022-10-19T13:19:28.433Z,1.10
2022-10-19T13:22:29.963Z,0.70
2022-10-19T13:25:23.687Z,1.55
2022-10-19T13:27:53.640Z,0.80
2022-10-19T13:31:07.023Z,3.35
2022-10-19T13:33:53.588Z,3.30
2022-10-19T13:36:23.666Z,9.45
2022-10-19T13:39:16.889Z,4.47
2022-10-19T13:41:52.674Z,0.73
2022-10-19T13:44:25.158Z,0.82
2022-10-19T13:47:05.551Z,1.40
2022-10-19T13:53:12.315Z,0.68
2022-10-19T13:56:04.041Z,6.47
2022-10-19T13:58:57.634Z,0.43
2022-10-19T14:01:39.643Z,1.20
2022-10-19T14:04:20.834Z,3.10
2022-10-19T14:06:54.752Z,2.38
2022-10-19T14:10:00.095Z,0.70
2022-10-19T14:12:35.158Z,3.85
2022-10-19T14:15:20.835Z,1.13
2022-10-19T14:20:29.323Z,2.55
2022-10-19T14:22:58.538Z,1.67
2022-10-19T14:25:29.816Z,1.83
2022-10-19T14:28:05.857Z,1.35
2022-10-19T14:30:36.832Z,7.90
2022-10-19T14:33:10.595Z,0.88
2022-10-19T14:35:43.514Z,2.22
2022-10-19T14:38:19.952Z,2.10
2022-10-19T14:40:49.089Z,7.53
2022-10-19T14:43:24.405Z,2.45
2022-10-19T14:46:20.347Z,2.63
2022-10-19T14:48:51.656Z,0.93
2022-10-19T14:51:31.542Z,3.03
2022-10-19T14:54:04.695Z,0.88
2022-10-19T14:56:39.576Z,1.95
2022-10-19T14:59:25.305Z,2.80
2022-10-19T15:04:26.998Z,2.92
2022-10-19T15:06:56.818Z,2.65
2022-10-19T15:09:37.531Z,6.43
2022-10-19T15:12:10.561Z,3.20
2022-10-19T15:14:41.409Z,2.03
2022-10-19T15:17:24.627Z,5.90
2022-10-19T15:19:55.740Z,5.15
2022-10-19T15:22:38.122Z,2.13
2022-10-19T15:25:27.225Z,4.20
2022-10-19T15:27:57.636Z,2.00
2022-10-19T15:30:30.322Z,2.85
2022-10-19T15:33:14.237Z,2.92
2022-10-19T15:35:45.885Z,2.03
2022-10-19T15:38:22.122Z,3.47
2022-10-19T15:40:58.020Z,2.58
2022-10-19T15:43:45.110Z,4.03
2022-10-19T15:46:31.768Z,1.52
2022-10-19T15:49:25.486Z,2.97
2022-10-19T15:51:54.491Z,3.65
2022-10-19T15:54:24.041Z,1.98
2022-10-19T15:56:54.402Z,3.83
2022-10-19T15:59:23.897Z,3.20
2022-10-19T16:01:56.107Z,4.63
2022-10-19T16:04:25.228Z,4.32
2022-10-19T16:06:54.115Z,7.68
2022-10-19T16:09:23.137Z,8.23
2022-10-19T16:11:56.758Z,6.47
2022-10-19T16:14:26.570Z,2.67
2022-10-19T16:17:00.435Z,5.45
2022-10-19T16:19:30.548Z,3.40
2022-10-19T16:21:59.464Z,2.97
2022-10-19T16:24:28.279Z,5.10
2022-10-19T16:26:57.072Z,4.82
2022-10-19T16:29:28.904Z,2.67
2022-10-19T16:31:59.625Z,4.18
2022-10-19T16:34:28.590Z,4.45
2022-10-19T16:36:57.546Z,4.45
2022-10-19T16:39:26.829Z,3.55
2022-10-19T16:41:55.707Z,3.17
2022-10-19T16:44:24.507Z,4.03
2022-10-19T16:46:53.341Z,12.20
2022-10-19T16:49:23.791Z,5.05
2022-10-19T16:51:54.885Z,1.45
2022-10-19T16:54:27.334Z,1.70
2022-10-19T16:56:56.602Z,1.23
2022-10-19T16:59:25.478Z,1.20
2022-10-19T17:01:54.440Z,2.72
2022-10-19T17:04:26.071Z,1.50
2022-10-19T17:06:54.869Z,4.22
2022-10-19T17:12:14.701Z,2.97
2022-10-19T17:14:43.858Z,3.47
2022-10-19T17:17:13.014Z,1.73
2022-10-19T17:19:43.301Z,1.95
2022-10-19T17:22:12.070Z,4.80
2022-10-19T17:24:41.293Z,3.22
2022-10-19T17:27:10.161Z,3.63
2022-10-19T17:29:38.980Z,1.70
2022-10-19T17:32:08.055Z,4.30
2022-10-19T17:34:36.880Z,2.33
2022-10-19T17:37:07.169Z,2.78
2022-10-19T17:39:35.998Z,2.72
2022-10-19T17:42:05.013Z,6.72
2022-10-19T17:44:34.087Z,3.80
2022-10-19T17:47:04.161Z,10.82
2022-10-19T17:49:33.049Z,21.88
2022-10-19T17:52:02.008Z,1.67
2022-10-19T17:54:43.397Z,2.03
2022-10-19T17:57:21.048Z,2.78
2022-10-19T17:59:52.948Z,3.83
2022-10-19T18:02:22.126Z,2.25
2022-10-19T18:04:50.877Z,1.77
2022-10-19T18:07:21.990Z,2.83
2022-10-19T18:09:52.434Z,0.95
2022-10-19T18:12:21.334Z,3.13
2022-10-19T18:14:50.294Z,5.00
2022-10-19T18:17:21.747Z,14.95
2022-10-19T18:19:52.932Z,9.07
2022-10-19T18:22:21.962Z,7.18
2022-10-19T18:24:52.126Z,8.95
2022-10-19T18:27:20.982Z,3.45
2022-10-19T18:29:49.754Z,3.20
2022-10-19T18:32:18.679Z,8.45
2022-10-19T18:34:47.699Z,10.25
2022-10-19T18:37:16.498Z,12.10
2022-10-19T18:39:45.379Z,3.67
2022-10-19T18:42:16.479Z,7.35
2022-10-19T18:44:47.138Z,4.90
2022-10-19T18:47:15.985Z,3.92
2022-10-19T18:49:44.802Z,6.57
2022-10-19T18:52:13.657Z,26.85
2022-10-19T18:54:42.462Z,7.20
2022-10-19T18:57:11.344Z,4.25
2022-10-19T18:59:41.518Z,5.30
2022-10-19T19:02:17.268Z,6.78
2022-10-19T19:04:51.861Z,5.55
2022-10-19T19:07:20.750Z,4.20
2022-10-19T19:09:51.007Z,5.28
2022-10-19T19:12:19.843Z,3.78
2022-10-19T19:14:57.492Z,4.50
2022-10-19T19:17:26.330Z,5.65
2022-10-19T19:19:55.166Z,4.43
2022-10-19T19:22:26.121Z,6.60
2022-10-19T19:24:55.109Z,4.28
2022-10-19T19:27:27.205Z,3.72
2022-10-19T19:30:03.825Z,6.00
2022-10-19T19:32:32.871Z,4.78
2022-10-19T19:35:02.060Z,5.22
2022-10-19T19:37:31.182Z,6.93
2022-10-19T19:40:00.037Z,8.15
2022-10-19T19:42:29.613Z,5.00
2022-10-19T19:44:58.417Z,21.02
2022-10-19T19:47:28.670Z,7.88
2022-10-19T19:49:57.491Z,17.63
2022-10-19T19:52:26.642Z,4.45
2022-10-19T19:54:55.565Z,12.63
2022-10-19T19:57:24.471Z,12.55
2022-10-19T19:59:53.236Z,10.05
2022-10-19T20:02:22.257Z,9.13
2022-10-19T20:04:52.675Z,9.90
2022-10-19T20:07:21.511Z,16.55
2022-10-19T20:09:50.305Z,9.82
2022-10-19T20:12:19.175Z,7.57
2022-10-19T20:14:47.951Z,3.88
2022-10-19T20:17:16.782Z,5.63
2022-10-19T20:19:45.617Z,5.95
2022-10-19T20:22:15.912Z,4.43
2022-10-19T20:24:44.774Z,7.38
2022-10-19T20:27:13.567Z,4.93
2022-10-19T20:29:42.430Z,5.43
2022-10-19T20:32:11.287Z,6.95
2022-10-19T20:34:40.115Z,7.28
2022-10-19T20:37:08.972Z,6.25
2022-10-19T20:39:39.321Z,7.32
2022-10-19T20:42:08.170Z,7.78
2022-10-19T20:44:36.989Z,7.22
2022-10-19T20:47:05.850Z,6.95
2022-10-19T20:49:35.427Z,5.45
2022-10-19T20:52:04.345Z,7.72
2022-10-19T20:54:33.311Z,8.65
2022-10-19T20:57:03.646Z,8.80
2022-10-19T20:59:33.393Z,10.48
2022-10-19T21:02:02.300Z,7.30
2022-10-19T21:04:31.257Z,5.55
2022-10-19T21:07:00.121Z,9.57
2022-10-19T21:09:29.650Z,5.43
2022-10-19T21:11:58.514Z,13.52
2022-10-19T21:14:30.471Z,7.53
2022-10-19T21:17:00.651Z,8.13
2022-10-19T21:19:30.975Z,6.57
2022-10-19T21:22:02.743Z,6.43
2022-10-19T21:24:34.461Z,7.32
2022-10-19T21:27:06.640Z,5.60
2022-10-19T21:29:37.174Z,4.75
2022-10-19T21:32:06.123Z,9.50
2022-10-19T21:34:35.129Z,6.57
2022-10-19T21:37:04.267Z,13.55
2022-10-19T21:39:33.069Z,9.75
2022-10-19T21:42:02.686Z,10.60
2022-10-19T21:44:31.494Z,9.05
2022-10-19T21:47:01.730Z,10.52
2022-10-19T21:49:30.585Z,6.47
2022-10-19T21:51:59.433Z,9.70
2022-10-19T21:54:29.215Z,9.82
2022-10-19T21:57:00.376Z,12.20
2022-10-19T21:59:29.797Z,8.95
2022-10-19T22:01:59.825Z,11.73
2022-10-19T22:04:30.446Z,9.50
2022-10-19T22:07:02.020Z,12.55
2022-10-19T22:09:30.889Z,7.90
2022-10-19T22:11:59.692Z,8.48
2022-10-19T22:14:28.515Z,6.63
2022-10-19T22:16:57.308Z,12.77
2022-10-19T22:19:26.347Z,8.18
2022-10-19T22:21:56.561Z,9.30
2022-10-19T22:24:25.379Z,7.60
2022-10-19T22:26:54.185Z,6.90
2022-10-19T22:29:23.028Z,8.32
2022-10-19T22:31:51.816Z,10.85
2022-10-19T22:34:20.707Z,8.23
2022-10-19T22:36:49.593Z,9.38
2022-10-19T22:39:19.892Z,10.05
2022-10-19T22:41:48.757Z,10.77
2022-10-19T22:44:17.578Z,8.05
2022-10-19T22:46:46.356Z,7.28
2022-10-19T22:49:15.129Z,8.13
2022-10-19T22:51:43.933Z,20.15
2022-10-19T22:54:12.933Z,11.32
2022-10-19T22:56:43.637Z,7.45
2022-10-19T22:59:12.499Z,7.05
2022-10-19T23:01:41.459Z,7.55
2022-10-19T23:04:10.331Z,9.65
2022-10-19T23:06:39.102Z,5.03
2022-10-19T23:09:08.064Z,8.32
2022-10-19T23:11:36.896Z,6.07
2022-10-19T23:14:07.143Z,5.90
2022-10-19T23:16:35.943Z,8.63
2022-10-19T23:19:04.853Z,6.38
2022-10-19T23:21:33.689Z,8.18
2022-10-19T23:24:02.532Z,9.38
2022-10-19T23:26:31.467Z,4.78
2022-10-19T23:29:00.341Z,9.52
2022-10-19T23:31:32.835Z,8.15
2022-10-19T23:34:01.976Z,15.00
2022-10-19T23:36:30.990Z,7.35
2022-10-19T23:38:59.945Z,6.05
2022-10-19T23:41:28.980Z,6.75
2022-10-19T23:43:57.850Z,5.25
2022-10-19T23:46:26.790Z,7.30
2022-10-19T23:48:57.105Z,7.20
2022-10-19T23:51:25.935Z,10.88
2022-10-19T23:53:55.204Z,6.13
2022-10-19T23:56:25.915Z,7.93
2022-10-19T23:58:55.566Z,9.57
